sensor_id;sensor_type;location;lat;lon;timestamp;P1;durP1;ratioP1;P2;durP2;ratioP2
52186;SDS011;38161;53.020;6.598;2022-11-09T00:00:43;5.20;;;1.92;;
52186;SDS011;38161;53.020;6.598;2022-11-09T00:03:09;5.05;;;2.20;;
52186;SDS011;38161;53.020;6.598;2022-11-09T00:05:37;7.32;;;1.75;;
52186;SDS011;38161;53.020;6.598;2022-11-09T00:08:08;6.47;;;2.38;;
52186;SDS011;38161;53.020;6.598;2022-11-09T00:10:35;7.13;;;2.25;;
52186;SDS011;38161;53.020;6.598;2022-11-09T00:13:01;4.57;;;1.75;;
52186;SDS011;38161;53.020;6.598;2022-11-09T00:15:27;6.20;;;2.70;;
52186;SDS011;38161;53.020;6.598;2022-11-09T00:17:53;8.63;;;2.30;;
52186;SDS011;38161;53.020;6.598;2022-11-09T00:20:19;4.82;;;2.03;;
52186;SDS011;38161;53.020;6.598;2022-11-09T00:22:48;7.22;;;2.30;;
52186;SDS011;38161;53.020;6.598;2022-11-09T00:25:14;8.98;;;2.75;;
52186;SDS011;38161;53.020;6.598;2022-11-09T00:27:40;10.10;;;2.90;;
52186;SDS011;38161;53.020;6.598;2022-11-09T00:30:06;6.22;;;2.55;;
52186;SDS011;38161;53.020;6.598;2022-11-09T00:32:34;7.28;;;2.65;;
52186;SDS011;38161;53.020;6.598;2022-11-09T00:35:00;7.38;;;2.80;;
52186;SDS011;38161;53.020;6.598;2022-11-09T00:37:28;6.93;;;2.70;;
52186;SDS011;38161;53.020;6.598;2022-11-09T00:39:54;9.02;;;2.38;;
52186;SDS011;38161;53.020;6.598;2022-11-09T00:42:20;7.57;;;2.63;;
52186;SDS011;38161;53.020;6.598;2022-11-09T00:44:45;5.83;;;2.37;;
52186;SDS011;38161;53.020;6.598;2022-11-09T00:47:11;9.70;;;2.53;;
52186;SDS011;38161;53.020;6.598;2022-11-09T00:49:37;7.18;;;2.92;;
52186;SDS011;38161;53.020;6.598;2022-11-09T00:52:02;5.90;;;2.83;;
52186;SDS011;38161;53.020;6.598;2022-11-09T00:54:28;4.88;;;2.40;;
52186;SDS011;38161;53.020;6.598;2022-11-09T00:56:54;8.48;;;2.65;;
52186;SDS011;38161;53.020;6.598;2022-11-09T00:59:20;6.53;;;3.60;;
52186;SDS011;38161;53.020;6.598;2022-11-09T01:01:45;8.13;;;2.73;;
52186;SDS011;38161;53.020;6.598;2022-11-09T01:04:11;11.20;;;2.53;;
52186;SDS011;38161;53.020;6.598;2022-11-09T01:06:37;6.80;;;2.70;;
52186;SDS011;38161;53.020;6.598;2022-11-09T01:09:02;5.87;;;2.67;;
52186;SDS011;38161;53.020;6.598;2022-11-09T01:11:28;5.38;;;2.65;;
52186;SDS011;38161;53.020;6.598;2022-11-09T01:13:54;8.93;;;2.70;;
52186;SDS011;38161;53.020;6.598;2022-11-09T01:16:20;7.05;;;2.58;;
52186;SDS011;38161;53.020;6.598;2022-11-09T01:18:47;6.95;;;3.25;;
52186;SDS011;38161;53.020;6.598;2022-11-09T01:21:16;7.53;;;2.90;;
52186;SDS011;38161;53.020;6.598;2022-11-09T01:23:41;8.63;;;2.83;;
52186;SDS011;38161;53.020;6.598;2022-11-09T01:26:08;6.43;;;2.47;;
52186;SDS011;38161;53.020;6.598;2022-11-09T01:28:35;7.15;;;2.58;;
52186;SDS011;38161;53.020;6.598;2022-11-09T01:31:03;8.88;;;3.03;;
52186;SDS011;38161;53.020;6.598;2022-11-09T01:33:30;9.35;;;2.88;;
52186;SDS011;38161;53.020;6.598;2022-11-09T01:36:04;5.22;;;2.63;;
52186;SDS011;38161;53.020;6.598;2022-11-09T01:38:35;5.45;;;2.50;;
52186;SDS011;38161;53.020;6.598;2022-11-09T01:41:02;6.20;;;2.38;;
52186;SDS011;38161;53.020;6.598;2022-11-09T01:43:29;8.48;;;2.80;;
52186;SDS011;38161;53.020;6.598;2022-11-09T01:48:31;8.98;;;2.72;;
52186;SDS011;38161;53.020;6.598;2022-11-09T01:51:02;11.70;;;3.17;;
52186;SDS011;38161;53.020;6.598;2022-11-09T01:53:36;8.45;;;2.42;;
52186;SDS011;38161;53.020;6.598;2022-11-09T01:56:06;7.55;;;2.92;;
52186;SDS011;38161;53.020;6.598;2022-11-09T01:58:35;6.40;;;2.45;;
52186;SDS011;38161;53.020;6.598;2022-11-09T02:01:05;9.70;;;2.88;;
52186;SDS011;38161;53.020;6.598;2022-11-09T02:03:36;6.95;;;2.83;;
52186;SDS011;38161;53.020;6.598;2022-11-09T02:06:07;9.07;;;2.85;;
52186;SDS011;38161;53.020;6.598;2022-11-09T02:08:36;7.93;;;2.90;;
52186;SDS011;38161;53.020;6.598;2022-11-09T02:11:09;6.28;;;2.70;;
52186;SDS011;38161;53.020;6.598;2022-11-09T02:13:45;7.93;;;2.72;;
52186;SDS011;38161;53.020;6.598;2022-11-09T02:16:14;6.35;;;2.55;;
52186;SDS011;38161;53.020;6.598;2022-11-09T02:18:59;6.40;;;2.58;;
52186;SDS011;38161;53.020;6.598;2022-11-09T02:21:26;7.78;;;2.83;;
52186;SDS011;38161;53.020;6.598;2022-11-09T02:23:53;9.98;;;2.63;;
52186;SDS011;38161;53.020;6.598;2022-11-09T02:26:42;7.35;;;2.40;;
52186;SDS011;38161;53.020;6.598;2022-11-09T02:29:09;7.35;;;2.40;;
52186;SDS011;38161;53.020;6.598;2022-11-09T02:31:38;6.35;;;2.60;;
52186;SDS011;38161;53.020;6.598;2022-11-09T02:34:12;7.22;;;2.50;;
52186;SDS011;38161;53.020;6.598;2022-11-09T02:36:41;6.18;;;2.40;;
52186;SDS011;38161;53.020;6.598;2022-11-09T02:39:07;4.65;;;2.58;;
52186;SDS011;38161;53.020;6.598;2022-11-09T02:41:35;6.00;;;2.28;;
52186;SDS011;38161;53.020;6.598;2022-11-09T02:44:07;6.03;;;2.45;;
52186;SDS011;38161;53.020;6.598;2022-11-09T02:46:34;6.97;;;2.58;;
52186;SDS011;38161;53.020;6.598;2022-11-09T02:49:01;8.38;;;2.47;;
52186;SDS011;38161;53.020;6.598;2022-11-09T02:51:27;6.78;;;2.50;;
52186;SDS011;38161;53.020;6.598;2022-11-09T02:53:53;11.50;;;2.47;;
52186;SDS011;38161;53.020;6.598;2022-11-09T02:56:18;7.50;;;2.50;;
52186;SDS011;38161;53.020;6.598;2022-11-09T02:58:44;6.00;;;2.38;;
52186;SDS011;38161;53.020;6.598;2022-11-09T03:01:10;7.43;;;2.50;;
52186;SDS011;38161;53.020;6.598;2022-11-09T03:03:35;5.53;;;2.27;;
52186;SDS011;38161;53.020;6.598;2022-11-09T03:06:01;5.97;;;2.20;;
52186;SDS011;38161;53.020;6.598;2022-11-09T03:08:27;6.40;;;2.50;;
52186;SDS011;38161;53.020;6.598;2022-11-09T03:10:53;8.20;;;2.13;;
52186;SDS011;38161;53.020;6.598;2022-11-09T03:13:19;8.63;;;2.50;;
52186;SDS011;38161;53.020;6.598;2022-11-09T03:15:45;9.57;;;2.43;;
52186;SDS011;38161;53.020;6.598;2022-11-09T03:18:10;8.25;;;2.53;;
52186;SDS011;38161;53.020;6.598;2022-11-09T03:20:36;7.97;;;2.70;;
52186;SDS011;38161;53.020;6.598;2022-11-09T03:23:02;10.23;;;3.40;;
52186;SDS011;38161;53.020;6.598;2022-11-09T03:25:27;7.20;;;2.40;;
52186;SDS011;38161;53.020;6.598;2022-11-09T03:28:00;8.90;;;2.38;;
52186;SDS011;38161;53.020;6.598;2022-11-09T03:30:29;15.73;;;2.25;;
52186;SDS011;38161;53.020;6.598;2022-11-09T03:32:58;8.07;;;2.33;;
52186;SDS011;38161;53.020;6.598;2022-11-09T03:35:25;7.25;;;2.28;;
52186;SDS011;38161;53.020;6.598;2022-11-09T03:37:51;10.32;;;2.58;;
52186;SDS011;38161;53.020;6.598;2022-11-09T03:40:17;9.48;;;2.40;;
52186;SDS011;38161;53.020;6.598;2022-11-09T03:42:44;11.00;;;2.00;;
52186;SDS011;38161;53.020;6.598;2022-11-09T03:45:10;9.88;;;2.25;;
52186;SDS011;38161;53.020;6.598;2022-11-09T03:47:40;9.02;;;2.40;;
52186;SDS011;38161;53.020;6.598;2022-11-09T03:50:07;8.90;;;2.33;;
52186;SDS011;38161;53.020;6.598;2022-11-09T03:52:34;6.93;;;1.90;;
52186;SDS011;38161;53.020;6.598;2022-11-09T03:55:00;10.38;;;2.55;;
52186;SDS011;38161;53.020;6.598;2022-11-09T03:57:25;7.15;;;1.98;;
52186;SDS011;38161;53.020;6.598;2022-11-09T03:59:51;9.03;;;2.53;;
52186;SDS011;38161;53.020;6.598;2022-11-09T04:02:17;8.80;;;2.10;;
52186;SDS011;38161;53.020;6.598;2022-11-09T04:04:42;5.83;;;2.13;;
52186;SDS011;38161;53.020;6.598;2022-11-09T04:07:11;7.00;;;2.40;;
52186;SDS011;38161;53.020;6.598;2022-11-09T04:09:37;10.25;;;2.20;;
52186;SDS011;38161;53.020;6.598;2022-11-09T04:12:03;8.83;;;2.60;;
52186;SDS011;38161;53.020;6.598;2022-11-09T04:14:29;8.02;;;1.92;;
52186;SDS011;38161;53.020;6.598;2022-11-09T04:16:55;11.00;;;2.45;;
52186;SDS011;38161;53.020;6.598;2022-11-09T04:19:21;8.03;;;2.10;;
52186;SDS011;38161;53.020;6.598;2022-11-09T04:21:47;7.67;;;1.90;;
52186;SDS011;38161;53.020;6.598;2022-11-09T04:24:13;5.90;;;2.20;;
52186;SDS011;38161;53.020;6.598;2022-11-09T04:26:38;8.23;;;2.30;;
52186;SDS011;38161;53.020;6.598;2022-11-09T04:29:04;8.23;;;2.30;;
52186;SDS011;38161;53.020;6.598;2022-11-09T04:31:30;11.20;;;2.17;;
52186;SDS011;38161;53.020;6.598;2022-11-09T04:33:55;7.40;;;2.20;;
52186;SDS011;38161;53.020;6.598;2022-11-09T04:36:21;8.95;;;2.60;;
52186;SDS011;38161;53.020;6.598;2022-11-09T04:38:47;8.35;;;1.88;;
52186;SDS011;38161;53.020;6.598;2022-11-09T04:41:13;12.40;;;2.58;;
52186;SDS011;38161;53.020;6.598;2022-11-09T04:43:40;7.78;;;2.45;;
52186;SDS011;38161;53.020;6.598;2022-11-09T04:46:05;10.60;;;2.55;;
52186;SDS011;38161;53.020;6.598;2022-11-09T04:48:31;10.33;;;2.80;;
52186;SDS011;38161;53.020;6.598;2022-11-09T04:51:04;7.22;;;2.30;;
52186;SDS011;38161;53.020;6.598;2022-11-09T04:53:32;11.65;;;2.55;;
52186;SDS011;38161;53.020;6.598;2022-11-09T04:55:59;4.43;;;2.35;;
52186;SDS011;38161;53.020;6.598;2022-11-09T04:58:25;10.18;;;2.28;;
52186;SDS011;38161;53.020;6.598;2022-11-09T05:00:51;10.70;;;2.30;;
52186;SDS011;38161;53.020;6.598;2022-11-09T05:03:18;7.57;;;2.80;;
52186;SDS011;38161;53.020;6.598;2022-11-09T05:05:44;9.35;;;2.28;;
52186;SDS011;38161;53.020;6.598;2022-11-09T05:08:10;7.78;;;2.47;;
52186;SDS011;38161;53.020;6.598;2022-11-09T05:10:36;8.45;;;2.67;;
52186;SDS011;38161;53.020;6.598;2022-11-09T05:13:03;7.60;;;2.57;;
52186;SDS011;38161;53.020;6.598;2022-11-09T05:15:30;8.15;;;2.33;;
52186;SDS011;38161;53.020;6.598;2022-11-09T05:17:56;8.90;;;2.65;;
52186;SDS011;38161;53.020;6.598;2022-11-09T05:20:23;6.75;;;2.22;;
52186;SDS011;38161;53.020;6.598;2022-11-09T05:22:49;9.30;;;2.70;;
52186;SDS011;38161;53.020;6.598;2022-11-09T05:25:33;5.10;;;1.77;;
52186;SDS011;38161;53.020;6.598;2022-11-09T05:27:59;10.07;;;2.47;;
52186;SDS011;38161;53.020;6.598;2022-11-09T05:30:25;7.57;;;2.40;;
52186;SDS011;38161;53.020;6.598;2022-11-09T05:32:51;8.27;;;2.57;;
52186;SDS011;38161;53.020;6.598;2022-11-09T05:35:16;9.47;;;2.50;;
52186;SDS011;38161;53.020;6.598;2022-11-09T05:37:46;9.95;;;2.40;;
52186;SDS011;38161;53.020;6.598;2022-11-09T05:40:13;11.52;;;2.67;;
52186;SDS011;38161;53.020;6.598;2022-11-09T05:42:40;8.45;;;2.28;;
52186;SDS011;38161;53.020;6.598;2022-11-09T05:45:09;8.68;;;2.75;;
52186;SDS011;38161;53.020;6.598;2022-11-09T05:47:39;8.10;;;2.80;;
52186;SDS011;38161;53.020;6.598;2022-11-09T05:50:06;6.20;;;2.13;;
52186;SDS011;38161;53.020;6.598;2022-11-09T05:52:34;8.13;;;2.50;;
52186;SDS011;38161;53.020;6.598;2022-11-09T05:55:00;7.13;;;2.20;;
52186;SDS011;38161;53.020;6.598;2022-11-09T05:57:26;12.02;;;2.85;;
52186;SDS011;38161;53.020;6.598;2022-11-09T05:59:52;8.20;;;2.15;;
52186;SDS011;38161;53.020;6.598;2022-11-09T06:02:18;8.63;;;2.53;;
52186;SDS011;38161;53.020;6.598;2022-11-09T06:04:44;10.05;;;2.63;;
52186;SDS011;38161;53.020;6.598;2022-11-09T06:07:10;9.02;;;2.65;;
52186;SDS011;38161;53.020;6.598;2022-11-09T06:09:35;9.53;;;2.50;;
52186;SDS011;38161;53.020;6.598;2022-11-09T06:12:01;6.53;;;2.20;;
52186;SDS011;38161;53.020;6.598;2022-11-09T06:14:27;8.18;;;2.60;;
52186;SDS011;38161;53.020;6.598;2022-11-09T06:16:53;8.77;;;2.40;;
52186;SDS011;38161;53.020;6.598;2022-11-09T06:19:18;10.20;;;2.43;;
52186;SDS011;38161;53.020;6.598;2022-11-09T06:21:44;7.70;;;2.43;;
52186;SDS011;38161;53.020;6.598;2022-11-09T06:24:10;7.23;;;2.33;;
52186;SDS011;38161;53.020;6.598;2022-11-09T06:26:35;8.32;;;2.35;;
52186;SDS011;38161;53.020;6.598;2022-11-09T06:29:02;7.82;;;2.03;;
52186;SDS011;38161;53.020;6.598;2022-11-09T06:31:27;9.43;;;2.88;;
52186;SDS011;38161;53.020;6.598;2022-11-09T06:33:53;9.10;;;2.53;;
52186;SDS011;38161;53.020;6.598;2022-11-09T06:36:19;6.72;;;1.98;;
52186;SDS011;38161;53.020;6.598;2022-11-09T06:38:48;5.53;;;1.98;;
52186;SDS011;38161;53.020;6.598;2022-11-09T06:41:15;7.30;;;2.25;;
52186;SDS011;38161;53.020;6.598;2022-11-09T06:43:41;8.67;;;2.17;;
52186;SDS011;38161;53.020;6.598;2022-11-09T06:46:07;8.23;;;2.20;;
52186;SDS011;38161;53.020;6.598;2022-11-09T06:48:35;8.73;;;2.10;;
52186;SDS011;38161;53.020;6.598;2022-11-09T06:53:28;8.05;;;2.38;;
52186;SDS011;38161;53.020;6.598;2022-11-09T06:55:59;7.82;;;2.08;;
52186;SDS011;38161;53.020;6.598;2022-11-09T06:58:26;10.57;;;2.42;;
52186;SDS011;38161;53.020;6.598;2022-11-09T07:00:52;9.20;;;1.98;;
52186;SDS011;38161;53.020;6.598;2022-11-09T07:03:18;6.10;;;2.30;;
52186;SDS011;38161;53.020;6.598;2022-11-09T07:05:46;8.00;;;2.03;;
52186;SDS011;38161;53.020;6.598;2022-11-09T07:10:38;8.70;;;2.10;;
52186;SDS011;38161;53.020;6.598;2022-11-09T07:13:04;9.38;;;2.30;;
52186;SDS011;38161;53.020;6.598;2022-11-09T07:15:33;8.32;;;2.25;;
52186;SDS011;38161;53.020;6.598;2022-11-09T07:18:00;7.03;;;2.10;;
52186;SDS011;38161;53.020;6.598;2022-11-09T07:20:28;8.10;;;2.20;;
52186;SDS011;38161;53.020;6.598;2022-11-09T07:22:53;11.55;;;2.22;;
52186;SDS011;38161;53.020;6.598;2022-11-09T07:25:19;8.00;;;1.65;;
52186;SDS011;38161;53.020;6.598;2022-11-09T07:27:45;7.60;;;2.47;;
52186;SDS011;38161;53.020;6.598;2022-11-09T07:30:11;8.70;;;2.38;;
52186;SDS011;38161;53.020;6.598;2022-11-09T07:32:37;7.18;;;2.22;;
52186;SDS011;38161;53.020;6.598;2022-11-09T07:35:04;6.68;;;1.73;;
52186;SDS011;38161;53.020;6.598;2022-11-09T07:37:30;7.57;;;2.30;;
52186;SDS011;38161;53.020;6.598;2022-11-09T07:39:56;10.00;;;2.20;;
52186;SDS011;38161;53.020;6.598;2022-11-09T07:42:22;10.00;;;2.50;;
52186;SDS011;38161;53.020;6.598;2022-11-09T07:44:48;11.75;;;2.03;;
52186;SDS011;38161;53.020;6.598;2022-11-09T07:47:15;11.38;;;2.70;;
52186;SDS011;38161;53.020;6.598;2022-11-09T07:49:42;11.77;;;2.30;;
52186;SDS011;38161;53.020;6.598;2022-11-09T07:52:08;10.45;;;2.55;;
52186;SDS011;38161;53.020;6.598;2022-11-09T07:54:34;9.90;;;2.35;;
52186;SDS011;38161;53.020;6.598;2022-11-09T07:57:00;9.02;;;2.22;;
52186;SDS011;38161;53.020;6.598;2022-11-09T07:59:26;9.77;;;2.60;;
52186;SDS011;38161;53.020;6.598;2022-11-09T08:01:52;9.65;;;2.30;;
52186;SDS011;38161;53.020;6.598;2022-11-09T08:04:18;8.70;;;2.60;;
52186;SDS011;38161;53.020;6.598;2022-11-09T08:06:44;7.37;;;2.33;;
52186;SDS011;38161;53.020;6.598;2022-11-09T08:09:09;11.00;;;2.45;;
52186;SDS011;38161;53.020;6.598;2022-11-09T08:11:35;12.63;;;3.10;;
52186;SDS011;38161;53.020;6.598;2022-11-09T08:14:01;9.57;;;2.57;;
52186;SDS011;38161;53.020;6.598;2022-11-09T08:16:26;9.77;;;2.50;;
52186;SDS011;38161;53.020;6.598;2022-11-09T08:18:52;12.43;;;2.43;;
52186;SDS011;38161;53.020;6.598;2022-11-09T08:21:18;9.03;;;2.60;;
52186;SDS011;38161;53.020;6.598;2022-11-09T08:23:43;11.80;;;2.67;;
52186;SDS011;38161;53.020;6.598;2022-11-09T08:26:09;11.48;;;2.65;;
52186;SDS011;38161;53.020;6.598;2022-11-09T08:28:35;10.60;;;2.75;;
52186;SDS011;38161;53.020;6.598;2022-11-09T08:31:03;9.23;;;2.58;;
52186;SDS011;38161;53.020;6.598;2022-11-09T08:33:32;13.45;;;3.10;;
52186;SDS011;38161;53.020;6.598;2022-11-09T08:36:00;11.98;;;2.67;;
52186;SDS011;38161;53.020;6.598;2022-11-09T08:38:32;10.20;;;2.58;;
52186;SDS011;38161;53.020;6.598;2022-11-09T08:40:58;8.00;;;2.10;;
52186;SDS011;38161;53.020;6.598;2022-11-09T08:43:24;13.07;;;3.50;;
52186;SDS011;38161;53.020;6.598;2022-11-09T08:45:50;8.27;;;2.63;;
52186;SDS011;38161;53.020;6.598;2022-11-09T08:48:15;12.35;;;2.92;;
52186;SDS011;38161;53.020;6.598;2022-11-09T08:50:41;12.67;;;2.83;;
52186;SDS011;38161;53.020;6.598;2022-11-09T08:53:07;10.70;;;2.50;;
52186;SDS011;38161;53.020;6.598;2022-11-09T08:55:33;9.97;;;2.13;;
52186;SDS011;38161;53.020;6.598;2022-11-09T08:58:00;12.27;;;3.00;;
52186;SDS011;38161;53.020;6.598;2022-11-09T09:00:26;9.32;;;2.88;;
52186;SDS011;38161;53.020;6.598;2022-11-09T09:02:52;8.90;;;2.60;;
52186;SDS011;38161;53.020;6.598;2022-11-09T09:05:18;11.03;;;3.47;;
52186;SDS011;38161;53.020;6.598;2022-11-09T09:07:44;10.95;;;2.75;;
52186;SDS011;38161;53.020;6.598;2022-11-09T09:10:10;14.85;;;3.20;;
52186;SDS011;38161;53.020;6.598;2022-11-09T09:12:36;15.05;;;3.05;;
52186;SDS011;38161;53.020;6.598;2022-11-09T09:15:02;9.25;;;3.13;;
52186;SDS011;38161;53.020;6.598;2022-11-09T09:17:28;10.20;;;2.75;;
52186;SDS011;38161;53.020;6.598;2022-11-09T09:19:54;8.20;;;2.73;;
52186;SDS011;38161;53.020;6.598;2022-11-09T09:22:20;10.45;;;2.72;;
52186;SDS011;38161;53.020;6.598;2022-11-09T09:24:46;10.48;;;3.40;;
52186;SDS011;38161;53.020;6.598;2022-11-09T09:27:12;11.82;;;3.08;;
52186;SDS011;38161;53.020;6.598;2022-11-09T09:29:37;16.52;;;2.67;;
52186;SDS011;38161;53.020;6.598;2022-11-09T09:32:03;11.80;;;2.42;;
52186;SDS011;38161;53.020;6.598;2022-11-09T09:34:29;12.82;;;3.33;;
52186;SDS011;38161;53.020;6.598;2022-11-09T09:36:55;13.25;;;3.15;;
52186;SDS011;38161;53.020;6.598;2022-11-09T09:39:21;14.82;;;3.67;;
52186;SDS011;38161;53.020;6.598;2022-11-09T09:41:57;9.82;;;3.13;;
52186;SDS011;38161;53.020;6.598;2022-11-09T09:49:51;11.77;;;3.50;;
52186;SDS011;38161;53.020;6.598;2022-11-09T09:57:41;12.27;;;3.55;;
52186;SDS011;38161;53.020;6.598;2022-11-09T10:00:17;10.82;;;3.45;;
52186;SDS011;38161;53.020;6.598;2022-11-09T10:02:47;9.15;;;3.00;;
52186;SDS011;38161;53.020;6.598;2022-11-09T10:05:15;14.18;;;3.92;;
52186;SDS011;38161;53.020;6.598;2022-11-09T10:16:05;14.75;;;4.32;;
52186;SDS011;38161;53.020;6.598;2022-11-09T10:19:24;12.68;;;3.58;;
52186;SDS011;38161;53.020;6.598;2022-11-09T10:21:47;15.95;;;3.90;;
52186;SDS011;38161;53.020;6.598;2022-11-09T10:26:55;10.45;;;3.42;;
52186;SDS011;38161;53.020;6.598;2022-11-09T10:29:23;11.88;;;3.92;;
52186;SDS011;38161;53.020;6.598;2022-11-09T10:31:56;11.93;;;3.45;;
52186;SDS011;38161;53.020;6.598;2022-11-09T10:34:31;9.90;;;3.63;;
52186;SDS011;38161;53.020;6.598;2022-11-09T10:39:33;10.57;;;3.25;;
52186;SDS011;38161;53.020;6.598;2022-11-09T10:42:04;15.68;;;3.78;;
52186;SDS011;38161;53.020;6.598;2022-11-09T10:44:29;13.73;;;4.17;;
52186;SDS011;38161;53.020;6.598;2022-11-09T10:47:05;10.90;;;3.80;;
52186;SDS011;38161;53.020;6.598;2022-11-09T10:49:32;11.43;;;3.90;;
52186;SDS011;38161;53.020;6.598;2022-11-09T10:51:58;8.73;;;3.42;;
52186;SDS011;38161;53.020;6.598;2022-11-09T10:54:26;11.80;;;3.60;;
52186;SDS011;38161;53.020;6.598;2022-11-09T10:59:51;11.27;;;3.70;;
52186;SDS011;38161;53.020;6.598;2022-11-09T11:04:49;13.95;;;4.07;;
52186;SDS011;38161;53.020;6.598;2022-11-09T11:07:27;14.32;;;4.47;;
52186;SDS011;38161;53.020;6.598;2022-11-09T11:09:52;13.57;;;4.05;;
52186;SDS011;38161;53.020;6.598;2022-11-09T11:12:18;11.23;;;3.57;;
52186;SDS011;38161;53.020;6.598;2022-11-09T11:14:44;10.70;;;3.95;;
52186;SDS011;38161;53.020;6.598;2022-11-09T11:20:26;12.77;;;4.05;;
52186;SDS011;38161;53.020;6.598;2022-11-09T11:25:37;11.23;;;3.58;;
52186;SDS011;38161;53.020;6.598;2022-11-09T11:31:10;10.60;;;4.03;;
52186;SDS011;38161;53.020;6.598;2022-11-09T11:33:39;15.15;;;4.07;;
52186;SDS011;38161;53.020;6.598;2022-11-09T11:47:36;13.30;;;4.10;;
52186;SDS011;38161;53.020;6.598;2022-11-09T11:52:57;9.10;;;3.45;;
52186;SDS011;38161;53.020;6.598;2022-11-09T11:55:43;8.55;;;3.38;;
52186;SDS011;38161;53.020;6.598;2022-11-09T11:58:21;9.73;;;3.45;;
52186;SDS011;38161;53.020;6.598;2022-11-09T12:12:06;10.55;;;2.97;;
52186;SDS011;38161;53.020;6.598;2022-11-09T12:17:47;11.65;;;3.00;;
52186;SDS011;38161;53.020;6.598;2022-11-09T12:34:22;10.85;;;2.47;;
52186;SDS011;38161;53.020;6.598;2022-11-09T12:37:11;13.60;;;3.38;;
52186;SDS011;38161;53.020;6.598;2022-11-09T12:39:45;10.60;;;2.80;;
52186;SDS011;38161;53.020;6.598;2022-11-09T12:42:19;10.05;;;2.95;;
52186;SDS011;38161;53.020;6.598;2022-11-09T12:47:39;10.65;;;2.80;;
52186;SDS011;38161;53.020;6.598;2022-11-09T12:50:10;11.80;;;2.42;;
52186;SDS011;38161;53.020;6.598;2022-11-09T12:52:38;8.30;;;2.78;;
52186;SDS011;38161;53.020;6.598;2022-11-09T12:55:04;9.38;;;2.90;;
52186;SDS011;38161;53.020;6.598;2022-11-09T12:57:31;10.70;;;3.00;;
52186;SDS011;38161;53.020;6.598;2022-11-09T12:59:59;11.70;;;2.67;;
52186;SDS011;38161;53.020;6.598;2022-11-09T13:04:55;7.87;;;2.53;;
52186;SDS011;38161;53.020;6.598;2022-11-09T13:07:42;9.48;;;2.78;;
52186;SDS011;38161;53.020;6.598;2022-11-09T13:10:23;9.43;;;2.90;;
52186;SDS011;38161;53.020;6.598;2022-11-09T13:18:45;11.55;;;2.35;;
52186;SDS011;38161;53.020;6.598;2022-11-09T13:23:55;14.32;;;3.65;;
52186;SDS011;38161;53.020;6.598;2022-11-09T13:29:07;9.50;;;2.75;;
52186;SDS011;38161;53.020;6.598;2022-11-09T13:34:51;4.50;;;1.92;;
52186;SDS011;38161;53.020;6.598;2022-11-09T13:37:33;5.68;;;2.45;;
52186;SDS011;38161;53.020;6.598;2022-11-09T13:42:57;8.65;;;2.40;;
52186;SDS011;38161;53.020;6.598;2022-11-09T13:45:36;7.13;;;2.50;;
52186;SDS011;38161;53.020;6.598;2022-11-09T13:48:19;5.85;;;2.13;;
52186;SDS011;38161;53.020;6.598;2022-11-09T13:50:53;7.05;;;2.15;;
52186;SDS011;38161;53.020;6.598;2022-11-09T13:58:58;5.13;;;1.50;;
52186;SDS011;38161;53.020;6.598;2022-11-09T14:01:29;5.90;;;1.52;;
52186;SDS011;38161;53.020;6.598;2022-11-09T14:03:56;4.72;;;1.70;;
52186;SDS011;38161;53.020;6.598;2022-11-09T14:06:22;6.93;;;1.50;;
52186;SDS011;38161;53.020;6.598;2022-11-09T14:08:48;5.07;;;1.83;;
52186;SDS011;38161;53.020;6.598;2022-11-09T14:14:17;3.78;;;1.50;;
52186;SDS011;38161;53.020;6.598;2022-11-09T14:19:42;5.68;;;1.30;;
52186;SDS011;38161;53.020;6.598;2022-11-09T14:22:20;4.78;;;1.38;;
52186;SDS011;38161;53.020;6.598;2022-11-09T14:24:46;5.82;;;1.48;;
52186;SDS011;38161;53.020;6.598;2022-11-09T14:27:14;5.25;;;1.70;;
52186;SDS011;38161;53.020;6.598;2022-11-09T14:37:44;4.53;;;1.60;;
52186;SDS011;38161;53.020;6.598;2022-11-09T14:40:16;5.55;;;1.80;;
52186;SDS011;38161;53.020;6.598;2022-11-09T14:42:51;5.32;;;1.80;;
52186;SDS011;38161;53.020;6.598;2022-11-09T14:45:26;4.45;;;1.70;;
52186;SDS011;38161;53.020;6.598;2022-11-09T14:47:59;7.18;;;1.88;;
52186;SDS011;38161;53.020;6.598;2022-11-09T14:50:29;7.13;;;2.05;;
52186;SDS011;38161;53.020;6.598;2022-11-09T14:52:57;8.18;;;2.25;;
52186;SDS011;38161;53.020;6.598;2022-11-09T14:55:25;8.13;;;2.63;;
52186;SDS011;38161;53.020;6.598;2022-11-09T14:57:53;11.77;;;2.75;;
52186;SDS011;38161;53.020;6.598;2022-11-09T15:00:27;7.55;;;2.17;;
52186;SDS011;38161;53.020;6.598;2022-11-09T15:02:55;6.25;;;2.17;;
52186;SDS011;38161;53.020;6.598;2022-11-09T15:05:29;8.23;;;2.97;;
52186;SDS011;38161;53.020;6.598;2022-11-09T15:07:55;6.70;;;3.00;;
52186;SDS011;38161;53.020;6.598;2022-11-09T15:10:21;8.75;;;2.72;;
52186;SDS011;38161;53.020;6.598;2022-11-09T15:12:52;6.38;;;2.70;;
52186;SDS011;38161;53.020;6.598;2022-11-09T15:15:21;7.25;;;2.75;;
52186;SDS011;38161;53.020;6.598;2022-11-09T15:17:49;11.18;;;3.22;;
52186;SDS011;38161;53.020;6.598;2022-11-09T15:35:50;6.07;;;2.53;;
52186;SDS011;38161;53.020;6.598;2022-11-09T15:40:52;7.47;;;2.80;;
52186;SDS011;38161;53.020;6.598;2022-11-09T15:43:18;7.10;;;2.80;;
52186;SDS011;38161;53.020;6.598;2022-11-09T15:45:44;9.27;;;2.72;;
52186;SDS011;38161;53.020;6.598;2022-11-09T15:48:09;6.93;;;2.80;;
52186;SDS011;38161;53.020;6.598;2022-11-09T15:50:35;8.87;;;3.03;;
52186;SDS011;38161;53.020;6.598;2022-11-09T15:53:01;7.27;;;3.10;;
52186;SDS011;38161;53.020;6.598;2022-11-09T15:55:26;8.73;;;3.07;;
52186;SDS011;38161;53.020;6.598;2022-11-09T15:57:52;7.88;;;3.05;;
52186;SDS011;38161;53.020;6.598;2022-11-09T16:00:18;9.10;;;3.20;;
52186;SDS011;38161;53.020;6.598;2022-11-09T16:02:45;4.75;;;2.55;;
52186;SDS011;38161;53.020;6.598;2022-11-09T16:05:11;7.72;;;2.97;;
52186;SDS011;38161;53.020;6.598;2022-11-09T16:07:45;9.18;;;3.00;;
52186;SDS011;38161;53.020;6.598;2022-11-09T16:10:12;8.60;;;3.60;;
52186;SDS011;38161;53.020;6.598;2022-11-09T16:12:38;5.60;;;2.60;;
52186;SDS011;38161;53.020;6.598;2022-11-09T16:15:04;7.43;;;2.77;;
52186;SDS011;38161;53.020;6.598;2022-11-09T16:17:30;10.07;;;3.08;;
52186;SDS011;38161;53.020;6.598;2022-11-09T16:19:56;6.90;;;2.70;;
52186;SDS011;38161;53.020;6.598;2022-11-09T16:22:21;7.97;;;2.73;;
52186;SDS011;38161;53.020;6.598;2022-11-09T16:24:47;5.38;;;2.72;;
52186;SDS011;38161;53.020;6.598;2022-11-09T16:27:13;6.97;;;2.65;;
52186;SDS011;38161;53.020;6.598;2022-11-09T16:29:39;8.67;;;2.60;;
52186;SDS011;38161;53.020;6.598;2022-11-09T16:32:05;5.70;;;2.77;;
52186;SDS011;38161;53.020;6.598;2022-11-09T16:34:30;5.10;;;2.50;;
52186;SDS011;38161;53.020;6.598;2022-11-09T16:36:56;5.97;;;2.73;;
52186;SDS011;38161;53.020;6.598;2022-11-09T16:41:49;8.18;;;2.25;;
52186;SDS011;38161;53.020;6.598;2022-11-09T16:44:17;10.60;;;2.88;;
52186;SDS011;38161;53.020;6.598;2022-11-09T16:46:45;6.78;;;2.10;;
52186;SDS011;38161;53.020;6.598;2022-11-09T16:49:12;7.35;;;2.10;;
52186;SDS011;38161;53.020;6.598;2022-11-09T16:51:38;6.53;;;2.03;;
52186;SDS011;38161;53.020;6.598;2022-11-09T16:54:04;7.68;;;2.38;;
52186;SDS011;38161;53.020;6.598;2022-11-09T16:56:30;7.55;;;2.05;;
52186;SDS011;38161;53.020;6.598;2022-11-09T16:58:58;6.13;;;2.28;;
52186;SDS011;38161;53.020;6.598;2022-11-09T17:01:24;6.10;;;2.20;;
52186;SDS011;38161;53.020;6.598;2022-11-09T17:03:50;9.67;;;2.77;;
52186;SDS011;38161;53.020;6.598;2022-11-09T17:06:16;8.57;;;3.42;;
52186;SDS011;38161;53.020;6.598;2022-11-09T17:08:41;12.10;;;3.00;;
52186;SDS011;38161;53.020;6.598;2022-11-09T17:11:11;8.33;;;2.83;;
52186;SDS011;38161;53.020;6.598;2022-11-09T17:13:39;5.80;;;2.60;;
52186;SDS011;38161;53.020;6.598;2022-11-09T17:16:09;11.07;;;3.08;;
52186;SDS011;38161;53.020;6.598;2022-11-09T17:18:36;8.07;;;3.13;;